createdAt,value
2017-11-06T00:01:56.470Z,12.48
2017-11-06T00:04:24.080Z,11.45
2017-11-06T00:06:52.133Z,10.82
2017-11-06T00:09:19.737Z,11.05
2017-11-06T00:11:48.089Z,12.30
2017-11-06T00:14:15.693Z,10.35
2017-11-06T00:16:43.282Z,11.30
2017-11-06T00:19:10.965Z,14.43
2017-11-06T00:21:38.557Z,11.00
2017-11-06T00:24:06.198Z,11.20
2017-11-06T00:26:33.803Z,11.50
2017-11-06T00:29:01.480Z,11.55
2017-11-06T00:31:29.054Z,12.05
2017-11-06T00:33:56.612Z,11.90
2017-11-06T00:36:24.273Z,10.95
2017-11-06T00:38:51.860Z,12.18
2017-11-06T00:41:19.409Z,11.57
2017-11-06T00:43:47.031Z,11.10
2017-11-06T00:46:14.638Z,12.27
2017-11-06T00:48:42.253Z,11.48
2017-11-06T00:51:09.956Z,11.23
2017-11-06T00:53:37.575Z,12.25
2017-11-06T00:56:05.697Z,12.30
2017-11-06T00:58:34.227Z,11.85
2017-11-06T01:01:01.831Z,13.32
2017-11-06T01:03:29.395Z,13.50
2017-11-06T01:05:56.943Z,12.00
2017-11-06T01:08:24.526Z,13.25
2017-11-06T01:10:52.090Z,12.98
2017-11-06T01:13:19.716Z,11.68
2017-11-06T01:15:47.283Z,12.55
2017-11-06T01:18:15.674Z,13.50
2017-11-06T01:20:43.310Z,12.80
2017-11-06T01:23:10.893Z,12.55
2017-11-06T01:25:38.596Z,13.75
2017-11-06T01:28:06.930Z,13.52
2017-11-06T01:30:35.309Z,12.55
2017-11-06T01:33:02.921Z,13.60
2017-11-06T01:35:30.513Z,12.68
2017-11-06T01:37:58.137Z,13.35
2017-11-06T01:40:26.488Z,14.15
2017-11-06T01:42:54.105Z,13.90
2017-11-06T01:45:21.721Z,13.02
2017-11-06T01:47:49.298Z,14.32
2017-11-06T01:50:17.641Z,14.70
2017-11-06T01:52:45.360Z,13.65
2017-11-06T01:55:12.972Z,14.73
2017-11-06T01:57:41.367Z,15.15
2017-11-06T02:00:09.770Z,15.02
2017-11-06T02:02:37.378Z,14.02
2017-11-06T02:05:05.051Z,13.90
2017-11-06T02:07:32.613Z,14.35
2017-11-06T02:10:00.189Z,13.98
2017-11-06T02:12:28.580Z,14.45
2017-11-06T02:14:56.939Z,14.68
2017-11-06T02:17:25.312Z,13.05
2017-11-06T02:19:52.936Z,14.20
2017-11-06T02:22:20.552Z,14.95
2017-11-06T02:24:48.931Z,15.98
2017-11-06T02:27:17.316Z,15.43
2017-11-06T02:29:46.494Z,14.27
2017-11-06T02:32:14.116Z,13.60
2017-11-06T02:34:41.730Z,14.55
2017-11-06T02:37:10.135Z,14.13
2017-11-06T02:39:37.766Z,15.40
2017-11-06T02:42:05.385Z,14.43
2017-11-06T02:44:33.697Z,17.00
2017-11-06T02:47:01.289Z,14.20
2017-11-06T02:49:28.861Z,15.40
2017-11-06T02:51:56.501Z,16.50
2017-11-06T02:54:24.088Z,14.43
2017-11-06T02:56:51.689Z,14.98
2017-11-06T02:59:19.275Z,14.98
2017-11-06T03:01:47.667Z,15.40
2017-11-06T03:04:15.268Z,14.38
2017-11-06T03:06:42.872Z,14.50
2017-11-06T03:09:11.307Z,15.10
2017-11-06T03:11:38.903Z,14.20
2017-11-06T03:14:07.311Z,15.65
2017-11-06T03:16:34.937Z,14.10
2017-11-06T03:19:02.535Z,14.18
2017-11-06T03:21:30.161Z,15.77
2017-11-06T03:23:58.600Z,13.75
2017-11-06T03:26:26.204Z,15.18
2017-11-06T03:28:54.547Z,18.95
2017-11-06T03:31:22.123Z,15.25
2017-11-06T03:33:49.718Z,15.55
2017-11-06T03:36:18.109Z,18.37
2017-11-06T03:38:46.123Z,17.15
2017-11-06T03:41:13.821Z,18.33
2017-11-06T03:43:41.409Z,18.05
2017-11-06T03:46:09.012Z,14.73
2017-11-06T03:48:36.623Z,16.35
2017-11-06T03:51:04.363Z,17.08
2017-11-06T03:53:31.965Z,15.45
2017-11-06T03:55:59.552Z,16.87
2017-11-06T03:58:27.145Z,15.38
2017-11-06T04:00:54.733Z,16.73
2017-11-06T04:03:22.358Z,16.23
2017-11-06T04:05:50.203Z,16.90
2017-11-06T04:08:17.793Z,16.40
2017-11-06T04:10:45.408Z,15.13
2017-11-06T04:13:12.990Z,16.98
2017-11-06T04:15:40.625Z,16.70
2017-11-06T04:18:08.256Z,17.70
2017-11-06T04:20:35.828Z,18.30
2017-11-06T04:23:03.413Z,17.37
2017-11-06T04:25:31.044Z,17.58
2017-11-06T04:27:59.512Z,18.15
2017-11-06T04:30:27.834Z,18.08
2017-11-06T04:32:55.464Z,17.92
2017-11-06T04:35:23.023Z,17.02
2017-11-06T04:37:50.620Z,17.00
2017-11-06T04:40:18.206Z,16.75
2017-11-06T04:42:47.586Z,15.73
2017-11-06T04:45:15.238Z,17.92
2017-11-06T04:47:42.818Z,18.17
2017-11-06T04:50:10.461Z,17.67
2017-11-06T04:52:38.123Z,17.08
2017-11-06T04:55:06.498Z,17.30
2017-11-06T04:57:34.126Z,16.35
2017-11-06T05:00:01.718Z,16.42
2017-11-06T05:02:29.331Z,16.10
2017-11-06T05:04:56.951Z,17.40
2017-11-06T05:07:24.533Z,17.98
2017-11-06T05:09:52.109Z,16.55
2017-11-06T05:12:20.452Z,16.80
2017-11-06T05:14:48.050Z,17.98
2017-11-06T05:17:15.694Z,18.25
2017-11-06T05:19:44.157Z,17.67
2017-11-06T05:22:11.771Z,15.38
2017-11-06T05:24:39.382Z,16.77
2017-11-06T05:27:06.971Z,14.27
2017-11-06T05:29:35.632Z,14.23
2017-11-06T05:32:03.222Z,16.98
2017-11-06T05:34:30.828Z,15.50
2017-11-06T05:36:58.447Z,14.48
2017-11-06T05:39:26.069Z,14.02
2017-11-06T05:41:53.673Z,15.48
2017-11-06T05:44:22.004Z,15.98
2017-11-06T05:46:49.658Z,15.02
2017-11-06T05:49:17.286Z,15.68
2017-11-06T05:51:44.896Z,15.23
2017-11-06T05:54:12.475Z,16.73
2017-11-06T05:56:40.069Z,15.88
2017-11-06T05:59:07.668Z,20.75
2017-11-06T06:01:36.062Z,16.35
2017-11-06T06:04:03.696Z,16.62
2017-11-06T06:06:31.677Z,14.63
2017-11-06T06:08:59.287Z,16.90
2017-11-06T06:11:26.881Z,17.08
2017-11-06T06:13:54.502Z,14.80
2017-11-06T06:16:22.094Z,17.58
2017-11-06T06:18:49.678Z,17.37
2017-11-06T06:21:18.186Z,17.48
2017-11-06T06:23:45.789Z,17.62
2017-11-06T06:26:13.422Z,16.75
2017-11-06T06:28:41.813Z,15.90
2017-11-06T06:31:09.427Z,16.23
2017-11-06T06:33:37.058Z,15.50
2017-11-06T06:36:05.433Z,17.33
2017-11-06T06:38:33.172Z,16.30
2017-11-06T06:41:01.289Z,17.52
2017-11-06T06:43:28.862Z,16.35
2017-11-06T06:45:56.501Z,17.42
2017-11-06T06:48:24.084Z,16.95
2017-11-06T06:50:51.722Z,16.30
2017-11-06T06:53:19.345Z,14.63
2017-11-06T06:55:47.235Z,15.57
2017-11-06T06:58:15.625Z,15.55
2017-11-06T07:00:44.013Z,15.68
2017-11-06T07:03:11.656Z,13.25
2017-11-06T07:05:40.142Z,15.05
2017-11-06T07:08:07.762Z,14.27
2017-11-06T07:10:36.151Z,14.00
2017-11-06T07:13:03.721Z,12.93
2017-11-06T07:15:31.369Z,14.07
2017-11-06T07:17:59.759Z,12.13
2017-11-06T07:20:27.316Z,12.93
2017-11-06T07:22:55.132Z,14.50
2017-11-06T07:25:22.745Z,12.98
2017-11-06T07:27:50.389Z,13.73
2017-11-06T07:30:19.130Z,11.35
2017-11-06T07:32:46.780Z,12.00
2017-11-06T07:35:14.464Z,11.60
2017-11-06T07:37:42.087Z,11.38
2017-11-06T07:40:09.694Z,11.57
2017-11-06T07:42:38.265Z,10.85
2017-11-06T07:45:05.880Z,10.27
2017-11-06T07:47:34.286Z,12.55
2017-11-06T07:50:01.982Z,12.18
2017-11-06T07:52:29.536Z,10.15
2017-11-06T07:54:57.113Z,12.00
2017-11-06T07:57:25.246Z,10.00
2017-11-06T07:59:52.952Z,10.55
2017-11-06T08:02:21.382Z,10.20
2017-11-06T08:04:48.994Z,10.05
2017-11-06T08:07:16.602Z,10.00
2017-11-06T08:09:44.265Z,11.15
2017-11-06T08:12:11.870Z,10.95
2017-11-06T08:14:39.568Z,11.70
2017-11-06T08:17:07.153Z,11.68
2017-11-06T08:19:34.803Z,11.98
2017-11-06T08:22:02.421Z,11.98
2017-11-06T08:24:30.008Z,12.63
2017-11-06T08:26:58.024Z,12.20
2017-11-06T08:29:25.660Z,10.70
2017-11-06T08:31:53.265Z,10.35
2017-11-06T08:34:22.705Z,10.20
2017-11-06T08:36:51.187Z,10.02
2017-11-06T08:39:18.817Z,9.40
2017-11-06T08:41:46.427Z,9.38
2017-11-06T08:44:14.267Z,9.13
2017-11-06T08:46:42.639Z,8.65
2017-11-06T08:49:10.996Z,9.68
2017-11-06T08:51:38.577Z,9.70
2017-11-06T08:54:06.186Z,8.85
2017-11-06T08:56:33.748Z,9.68
2017-11-06T08:59:02.136Z,9.90
2017-11-06T09:01:29.765Z,9.48
2017-11-06T09:03:57.327Z,9.15
2017-11-06T09:06:24.992Z,8.20
2017-11-06T09:08:52.658Z,8.18
2017-11-06T09:11:20.322Z,7.80
2017-11-06T09:13:47.923Z,7.80
2017-11-06T09:16:16.335Z,7.62
2017-11-06T09:18:44.695Z,7.62
2017-11-06T09:21:12.346Z,7.78
2017-11-06T09:23:39.953Z,8.93
2017-11-06T09:26:07.552Z,7.18
2017-11-06T09:28:35.177Z,6.32
2017-11-06T09:31:02.831Z,7.65
2017-11-06T09:33:30.424Z,6.07
2017-11-06T09:35:58.072Z,7.35
2017-11-06T09:38:25.699Z,8.10
2017-11-06T09:40:54.071Z,6.65
2017-11-06T09:43:22.516Z,7.70
2017-11-06T09:45:50.877Z,7.53
2017-11-06T09:48:18.508Z,8.20
2017-11-06T09:50:46.945Z,8.75
2017-11-06T09:53:14.539Z,8.02
2017-11-06T09:55:42.234Z,6.97
2017-11-06T09:58:09.844Z,6.78
2017-11-06T10:00:37.423Z,7.87
2017-11-06T10:03:05.711Z,8.80
2017-11-06T10:05:33.298Z,7.95
2017-11-06T10:08:01.183Z,6.53
2017-11-06T10:10:28.796Z,6.45
2017-11-06T10:12:57.244Z,6.62
2017-11-06T10:15:24.810Z,6.78
2017-11-06T10:17:52.397Z,6.75
2017-11-06T10:20:20.823Z,7.25
2017-11-06T10:22:48.995Z,6.40
2017-11-06T10:25:16.588Z,6.90
2017-11-06T10:27:44.216Z,6.25
2017-11-06T10:30:11.917Z,6.30
2017-11-06T10:32:39.524Z,6.80
2017-11-06T10:35:07.292Z,6.55
2017-11-06T10:37:34.880Z,6.65
2017-11-06T10:40:02.546Z,7.32
2017-11-06T10:42:30.113Z,7.05
2017-11-06T10:44:57.815Z,6.10
2017-11-06T10:47:25.478Z,7.57
2017-11-06T10:49:53.070Z,6.00
2017-11-06T10:52:20.708Z,5.00
2017-11-06T10:54:48.310Z,5.00
2017-11-06T10:57:15.950Z,6.43
2017-11-06T10:59:43.611Z,5.47
2017-11-06T11:02:11.354Z,6.12
2017-11-06T11:04:39.064Z,4.53
2017-11-06T11:07:06.699Z,6.43
2017-11-06T11:09:34.297Z,58.28
2017-11-06T11:12:01.935Z,77.43
2017-11-06T11:14:29.532Z,32.72
2017-11-06T11:16:57.139Z,5.68
2017-11-06T11:19:24.741Z,5.55
2017-11-06T11:21:52.389Z,6.43
2017-11-06T11:24:20.001Z,5.30
2017-11-06T11:26:47.769Z,5.00
2017-11-06T11:29:16.042Z,6.97
2017-11-06T11:31:43.645Z,3.85
2017-11-06T11:34:11.293Z,9.57
2017-11-06T11:36:38.957Z,4.40
2017-11-06T11:39:06.631Z,4.07
2017-11-06T11:41:34.359Z,4.18
2017-11-06T11:44:01.972Z,3.65
2017-11-06T11:46:29.592Z,4.35
2017-11-06T11:48:57.222Z,2.40
2017-11-06T11:51:24.838Z,4.05
2017-11-06T11:53:52.515Z,2.22
2017-11-06T11:56:20.104Z,3.92
2017-11-06T11:58:48.284Z,2.85
2017-11-06T12:01:15.949Z,4.10
2017-11-06T12:03:43.615Z,3.40
2017-11-06T12:06:16.157Z,3.30
2017-11-06T12:08:43.786Z,4.03
2017-11-06T12:11:11.909Z,3.10
2017-11-06T12:13:39.507Z,5.47
2017-11-06T12:16:07.114Z,3.03
2017-11-06T12:18:34.802Z,4.18
2017-11-06T12:21:02.417Z,3.25
2017-11-06T12:23:30.027Z,3.58
2017-11-06T12:25:57.586Z,4.07
2017-11-06T12:28:25.259Z,3.28
2017-11-06T12:30:52.977Z,3.65
2017-11-06T12:33:20.638Z,3.00
2017-11-06T12:35:48.223Z,3.37
2017-11-06T12:38:15.803Z,3.15
2017-11-06T12:40:43.423Z,3.35
2017-11-06T12:43:11.005Z,2.92
2017-11-06T12:45:38.571Z,2.35
2017-11-06T12:48:06.174Z,3.72
2017-11-06T12:50:33.759Z,2.40
2017-11-06T12:53:01.369Z,3.10
2017-11-06T12:55:28.951Z,2.45
2017-11-06T12:57:57.336Z,4.65
2017-11-06T13:00:24.907Z,3.15
2017-11-06T13:02:53.291Z,2.80
2017-11-06T13:05:20.860Z,2.75
2017-11-06T13:07:49.193Z,3.35
2017-11-06T13:10:16.798Z,2.80
2017-11-06T13:12:44.397Z,2.50
2017-11-06T13:15:12.099Z,2.47
2017-11-06T13:17:39.739Z,2.42
2017-11-06T13:20:07.368Z,3.70
2017-11-06T13:22:35.058Z,2.08
2017-11-06T13:25:02.641Z,2.08
2017-11-06T13:27:30.246Z,3.70
2017-11-06T13:29:57.833Z,2.62
2017-11-06T13:32:25.426Z,2.53
2017-11-06T13:34:53.100Z,2.28
2017-11-06T13:37:21.456Z,2.17
2017-11-06T13:39:49.077Z,1.95
2017-11-06T13:42:16.675Z,2.65
2017-11-06T13:44:44.304Z,2.42
2017-11-06T13:47:11.927Z,1.73
2017-11-06T13:49:39.560Z,1.87
2017-11-06T13:52:07.198Z,2.10
2017-11-06T13:54:34.802Z,1.40
2017-11-06T13:57:03.187Z,1.80
2017-11-06T13:59:30.839Z,2.72
2017-11-06T14:01:58.425Z,2.03
2017-11-06T14:04:26.847Z,3.42
2017-11-06T14:06:55.246Z,2.42
2017-11-06T14:09:23.097Z,1.67
2017-11-06T14:11:50.925Z,1.37
2017-11-06T14:14:18.533Z,2.42
2017-11-06T14:16:46.196Z,1.90
2017-11-06T14:19:13.868Z,3.33
2017-11-06T14:21:41.530Z,1.90
2017-11-06T14:24:09.150Z,1.98
2017-11-06T14:26:36.779Z,2.22
2017-11-06T14:29:04.452Z,3.10
2017-11-06T14:31:32.162Z,3.17
2017-11-06T14:33:59.819Z,2.50
2017-11-06T14:36:27.441Z,2.97
2017-11-06T14:38:55.052Z,3.67
2017-11-06T14:41:22.666Z,2.20
2017-11-06T14:43:50.288Z,2.45
2017-11-06T14:46:18.673Z,5.65
2017-11-06T14:48:47.005Z,2.80
2017-11-06T14:51:14.618Z,3.00
2017-11-06T14:53:43.020Z,3.17
2017-11-06T14:56:10.701Z,3.10
2017-11-06T14:58:38.487Z,2.62
2017-11-06T15:01:06.181Z,3.28
2017-11-06T15:03:35.137Z,3.10
2017-11-06T15:06:02.733Z,2.92
2017-11-06T15:08:30.417Z,2.58
2017-11-06T15:10:58.799Z,2.92
2017-11-06T15:13:26.508Z,3.55
2017-11-06T15:15:54.148Z,2.78
2017-11-06T15:18:21.797Z,3.12
2017-11-06T15:20:49.455Z,3.92
2017-11-06T15:23:17.692Z,4.10
2017-11-06T15:25:45.597Z,3.00
2017-11-06T15:28:14.126Z,2.95
2017-11-06T15:30:41.778Z,3.75
2017-11-06T15:33:09.404Z,5.25
2017-11-06T15:35:37.000Z,4.22
2017-11-06T15:38:04.644Z,3.50
2017-11-06T15:40:32.288Z,4.10
2017-11-06T15:42:59.876Z,5.45
2017-11-06T15:45:27.491Z,4.12
2017-11-06T15:47:55.961Z,6.25
2017-11-06T15:50:23.580Z,4.57
2017-11-06T15:52:51.965Z,5.10
2017-11-06T15:55:20.415Z,4.93
2017-11-06T15:57:48.016Z,5.70
2017-11-06T16:00:15.709Z,6.15
2017-11-06T16:02:43.339Z,7.82
2017-11-06T16:05:10.994Z,6.22
2017-11-06T16:07:39.341Z,4.93
2017-11-06T16:10:07.050Z,5.80
2017-11-06T16:12:34.682Z,6.12
2017-11-06T16:15:02.336Z,5.85
2017-11-06T16:17:30.948Z,6.07
2017-11-06T16:20:00.156Z,5.53
2017-11-06T16:22:27.765Z,6.43
2017-11-06T16:24:55.448Z,5.87
2017-11-06T16:27:23.901Z,8.20
2017-11-06T16:29:51.599Z,8.05
2017-11-06T16:32:19.982Z,7.50
2017-11-06T16:34:47.639Z,7.40
2017-11-06T16:37:15.309Z,7.40
2017-11-06T16:39:43.910Z,8.77
2017-11-06T16:42:11.523Z,8.05
2017-11-06T16:44:39.182Z,7.47
2017-11-06T16:47:06.868Z,6.55
2017-11-06T16:49:34.556Z,8.75
2017-11-06T16:52:02.154Z,8.82
2017-11-06T16:54:29.742Z,8.02
2017-11-06T16:56:57.396Z,9.07
2017-11-06T16:59:25.063Z,8.57
2017-11-06T17:01:52.791Z,9.85
2017-11-06T17:04:20.433Z,9.25
2017-11-06T17:06:48.115Z,7.75
2017-11-06T17:09:15.770Z,9.18
2017-11-06T17:11:43.538Z,8.98
2017-11-06T17:14:11.214Z,10.07
2017-11-06T17:16:38.916Z,9.18
2017-11-06T17:19:06.513Z,11.50
2017-11-06T17:21:34.239Z,19.92
2017-11-06T17:24:01.901Z,17.42
2017-11-06T17:26:30.546Z,16.80
2017-11-06T17:28:58.311Z,12.77
2017-11-06T17:31:26.014Z,10.02
2017-11-06T17:33:54.434Z,12.07
2017-11-06T17:36:22.085Z,11.45
2017-11-06T17:38:49.744Z,10.55
2017-11-06T17:41:17.967Z,11.05
2017-11-06T17:43:46.122Z,15.65
2017-11-06T17:46:13.749Z,12.35
2017-11-06T17:48:41.461Z,10.20
2017-11-06T17:51:09.186Z,9.95
2017-11-06T17:53:36.801Z,11.80
2017-11-06T17:56:04.462Z,11.35
2017-11-06T17:58:33.005Z,11.50
2017-11-06T18:01:00.719Z,10.95
2017-11-06T18:03:29.219Z,10.40
2017-11-06T18:05:56.963Z,11.35
2017-11-06T18:08:24.572Z,12.50
2017-11-06T18:10:52.336Z,12.07
2017-11-06T18:13:19.980Z,69.75
2017-11-06T18:15:47.668Z,23.23
2017-11-06T18:18:15.246Z,19.73
2017-11-06T18:20:43.186Z,20.70
2017-11-06T18:23:11.011Z,13.10
2017-11-06T18:25:39.424Z,12.70
2017-11-06T18:28:07.124Z,13.45
2017-11-06T18:30:34.882Z,11.45
2017-11-06T18:33:02.473Z,11.52
2017-11-06T18:35:30.093Z,9.90
2017-11-06T18:37:57.720Z,9.18
2017-11-06T18:40:26.203Z,11.10
2017-11-06T18:42:54.559Z,10.88
2017-11-06T18:45:22.264Z,12.40
2017-11-06T18:47:50.702Z,14.65
2017-11-06T18:50:18.462Z,13.07
2017-11-06T18:52:46.130Z,10.85
2017-11-06T18:55:14.559Z,13.45
2017-11-06T18:57:42.159Z,12.52
2017-11-06T19:00:10.038Z,14.90
2017-11-06T19:02:38.541Z,12.93
2017-11-06T19:05:07.029Z,13.93
2017-11-06T19:07:34.678Z,17.02
2017-11-06T19:10:03.094Z,14.00
2017-11-06T19:12:30.655Z,14.87
2017-11-06T19:14:58.306Z,14.32
2017-11-06T19:17:25.929Z,15.60
2017-11-06T19:19:54.297Z,18.37
2017-11-06T19:22:22.681Z,17.40
2017-11-06T19:24:50.274Z,15.82
2017-11-06T19:27:18.039Z,15.73
2017-11-06T19:29:45.706Z,15.88
2017-11-06T19:32:13.379Z,15.77
2017-11-06T19:34:40.992Z,16.17
2017-11-06T19:37:09.353Z,15.82
2017-11-06T19:39:36.999Z,15.75
2017-11-06T19:42:04.619Z,16.70
2017-11-06T19:44:32.242Z,15.45
2017-11-06T19:46:59.902Z,17.42
2017-11-06T19:49:27.598Z,17.05
2017-11-06T19:51:55.644Z,17.30
2017-11-06T19:54:23.403Z,17.70
2017-11-06T19:56:51.841Z,19.37
2017-11-06T19:59:19.517Z,18.17
2017-11-06T20:01:47.904Z,17.92
2017-11-06T20:04:15.999Z,19.70
2017-11-06T20:06:43.582Z,17.40
2017-11-06T20:09:11.955Z,16.48
2017-11-06T20:11:39.596Z,17.10
2017-11-06T20:14:07.238Z,15.55
2017-11-06T20:16:34.908Z,16.65
2017-11-06T20:19:02.502Z,17.12
2017-11-06T20:21:30.127Z,17.30
2017-11-06T20:23:57.747Z,16.73
2017-11-06T20:26:25.387Z,15.20
2017-11-06T20:28:53.797Z,17.12
2017-11-06T20:31:21.449Z,16.58
2017-11-06T20:33:49.243Z,18.23
2017-11-06T20:36:17.712Z,18.87
2017-11-06T20:38:45.304Z,21.05
2017-11-06T20:41:13.110Z,19.92
2017-11-06T20:43:40.873Z,19.58
2017-11-06T20:46:08.600Z,17.83
2017-11-06T20:48:36.233Z,15.85
2017-11-06T20:51:03.846Z,14.43
2017-11-06T20:53:32.222Z,13.40
2017-11-06T20:56:00.643Z,15.13
2017-11-06T20:58:28.303Z,14.32
2017-11-06T21:00:56.872Z,14.90
2017-11-06T21:03:24.452Z,13.05
2017-11-06T21:05:52.072Z,14.65
2017-11-06T21:08:20.459Z,14.15
2017-11-06T21:10:48.090Z,13.32
2017-11-06T21:13:15.785Z,15.23
2017-11-06T21:15:43.555Z,13.88
2017-11-06T21:18:11.176Z,14.65
2017-11-06T21:20:38.793Z,13.70
2017-11-06T21:23:06.525Z,15.02
2017-11-06T21:25:35.016Z,13.30
2017-11-06T21:28:02.604Z,15.35
2017-11-06T21:33:25.260Z,14.82
2017-11-06T21:35:52.853Z,16.55
2017-11-06T21:38:20.922Z,15.50
2017-11-06T21:40:48.569Z,14.77
2017-11-06T21:43:16.202Z,16.05
2017-11-06T21:45:43.847Z,14.57
2017-11-06T21:48:11.467Z,15.27
2017-11-06T21:50:39.117Z,14.93
2017-11-06T21:53:06.820Z,14.95
2017-11-06T21:55:35.169Z,12.45
2017-11-06T21:58:02.815Z,13.75
2017-11-06T22:00:30.395Z,15.88
2017-11-06T22:02:58.010Z,14.38
2017-11-06T22:05:25.670Z,14.35
2017-11-06T22:07:53.331Z,15.50
2017-11-06T22:10:21.010Z,15.77
2017-11-06T22:12:48.614Z,15.60
2017-11-06T22:15:16.992Z,15.30
2017-11-06T22:17:44.627Z,15.77
2017-11-06T22:20:12.211Z,16.42
2017-11-06T22:22:39.819Z,16.55
2017-11-06T22:25:07.431Z,14.90
2017-11-06T22:27:35.884Z,15.55
2017-11-06T22:30:03.534Z,17.30
2017-11-06T22:32:31.166Z,17.23
2017-11-06T22:34:58.806Z,15.95
2017-11-06T22:37:26.398Z,14.98
2017-11-06T22:39:53.981Z,16.10
2017-11-06T22:42:21.600Z,16.40
2017-11-06T22:44:49.967Z,14.80
2017-11-06T22:47:17.550Z,14.20
2017-11-06T22:49:45.162Z,14.32
2017-11-06T22:52:12.757Z,15.07
2017-11-06T22:54:41.165Z,16.40
2017-11-06T22:57:08.762Z,14.68
2017-11-06T22:59:36.385Z,16.70
2017-11-06T23:02:03.989Z,16.00
2017-11-06T23:04:31.628Z,17.05
2017-11-06T23:07:00.070Z,15.63
2017-11-06T23:09:27.665Z,16.60
2017-11-06T23:11:55.351Z,14.55
2017-11-06T23:14:22.961Z,16.15
2017-11-06T23:16:51.213Z,15.40
2017-11-06T23:19:19.596Z,15.40
2017-11-06T23:21:47.998Z,15.57
2017-11-06T23:24:15.574Z,14.57
2017-11-06T23:26:43.205Z,14.32
2017-11-06T23:29:11.583Z,13.77
2017-11-06T23:31:40.041Z,13.00
2017-11-06T23:34:08.628Z,15.45
2017-11-06T23:36:36.360Z,14.77
2017-11-06T23:39:03.963Z,14.15
2017-11-06T23:41:31.766Z,13.25
2017-11-06T23:43:59.984Z,12.93
2017-11-06T23:46:27.602Z,13.35
2017-11-06T23:48:55.284Z,13.88
2017-11-06T23:51:22.912Z,15.07
2017-11-06T23:53:50.572Z,13.48
2017-11-06T23:56:18.190Z,13.85
2017-11-06T23:58:45.833Z,13.95
